createdAt,value
2023-03-10T00:00:25.813Z,98846.32
2023-03-10T00:02:55.570Z,98837.84
2023-03-10T00:05:25.460Z,98837.84
2023-03-10T00:07:55.228Z,98845.57
2023-03-10T00:10:25.318Z,98850.75
2023-03-10T00:12:55.154Z,98845.62
2023-03-10T00:15:25.135Z,98841.45
2023-03-10T00:17:55.699Z,98839.67
2023-03-10T00:20:26.436Z,98837.31
2023-03-10T00:22:56.260Z,98834.79
2023-03-10T00:25:25.914Z,98832.70
2023-03-10T00:27:55.748Z,98830.90
2023-03-10T00:30:25.265Z,98829.17
2023-03-10T00:32:55.073Z,98820.55
2023-03-10T00:35:25.553Z,98809.53
2023-03-10T00:37:56.142Z,98817.13
2023-03-10T00:40:25.628Z,98817.41
2023-03-10T00:42:55.448Z,98806.45
2023-03-10T00:45:25.021Z,98810.97
2023-03-10T00:47:54.795Z,98813.05
2023-03-10T00:50:24.486Z,98805.13
2023-03-10T00:52:54.236Z,98811.91
2023-03-10T00:55:23.986Z,98822.52
2023-03-10T00:57:53.480Z,98822.52
2023-03-10T01:00:24.586Z,98819.28
2023-03-10T01:02:54.706Z,98810.95
2023-03-10T01:05:24.629Z,98816.03
2023-03-10T01:07:54.197Z,98818.12
2023-03-10T01:10:24.008Z,98824.41
2023-03-10T01:12:53.778Z,98823.88
2023-03-10T01:15:24.002Z,98826.19
2023-03-10T01:17:53.774Z,98819.06
2023-03-10T01:20:23.326Z,98828.17
2023-03-10T01:22:53.156Z,98829.31
2023-03-10T01:25:22.967Z,98824.12
2023-03-10T01:27:52.760Z,98820.84
2023-03-10T01:30:22.598Z,98823.90
2023-03-10T01:32:53.216Z,98817.92
2023-03-10T01:35:23.020Z,98811.78
2023-03-10T01:37:53.752Z,98807.66
2023-03-10T01:40:23.706Z,98804.73
2023-03-10T01:42:54.293Z,98804.78
2023-03-10T01:45:27.121Z,98796.77
2023-03-10T01:47:58.005Z,98790.16
2023-03-10T01:50:27.996Z,98791.50
2023-03-10T01:52:58.750Z,98802.92
2023-03-10T01:55:40.220Z,98796.36
2023-03-10T01:58:12.025Z,98796.55
2023-03-10T02:00:42.501Z,98791.06
2023-03-10T02:03:24.353Z,98783.97
2023-03-10T02:06:00.212Z,98782.39
2023-03-10T02:08:32.953Z,98777.55
2023-03-10T02:11:03.348Z,98779.13
2023-03-10T02:13:33.123Z,98786.30
2023-03-10T02:16:04.111Z,98791.63
2023-03-10T02:18:34.662Z,98789.78
2023-03-10T02:21:28.602Z,98790.73
2023-03-10T02:24:17.383Z,98793.28
2023-03-10T02:26:55.753Z,98790.84
2023-03-10T02:32:17.817Z,98782.73
2023-03-10T02:34:47.733Z,98771.03
2023-03-10T02:37:32.608Z,98779.51
2023-03-10T02:40:04.666Z,98778.16
2023-03-10T02:42:37.279Z,98767.00
2023-03-10T02:45:08.692Z,98766.83
2023-03-10T02:47:38.224Z,98765.11
2023-03-10T02:50:09.199Z,98770.62
2023-03-10T02:52:47.818Z,98761.16
2023-03-10T02:55:18.829Z,98757.94
2023-03-10T02:57:48.950Z,98758.16
2023-03-10T03:00:18.886Z,98758.16
2023-03-10T03:02:48.681Z,98754.90
2023-03-10T03:05:18.644Z,98749.42
2023-03-10T03:07:48.582Z,98743.80
2023-03-10T03:10:18.485Z,98745.06
2023-03-10T03:12:50.130Z,98739.52
2023-03-10T03:15:21.636Z,98739.52
2023-03-10T03:17:51.624Z,98736.89
2023-03-10T03:20:22.504Z,98737.49
2023-03-10T03:22:52.741Z,98736.06
2023-03-10T03:25:24.033Z,98732.45
2023-03-10T03:27:54.045Z,98727.73
2023-03-10T03:30:26.396Z,98722.56
2023-03-10T03:32:57.164Z,98720.23
2023-03-10T03:35:31.166Z,98718.06
2023-03-10T03:38:01.501Z,98724.39
2023-03-10T03:40:33.735Z,98728.44
2023-03-10T03:43:04.498Z,98730.59
2023-03-10T03:45:34.812Z,98725.56
2023-03-10T03:48:06.282Z,98727.47
2023-03-10T03:50:36.909Z,98727.93
2023-03-10T03:53:08.434Z,98726.34
2023-03-10T03:55:38.511Z,98722.63
2023-03-10T03:58:09.888Z,98720.80
2023-03-10T04:00:40.757Z,98712.39
2023-03-10T04:03:10.983Z,98706.67
2023-03-10T04:05:40.823Z,98711.48
2023-03-10T04:08:11.631Z,98704.97
2023-03-10T04:10:41.586Z,98709.72
2023-03-10T04:13:11.470Z,98718.41
2023-03-10T04:15:41.391Z,98716.75
2023-03-10T04:18:11.788Z,98714.13
2023-03-10T04:20:41.615Z,98706.53
2023-03-10T04:23:11.377Z,98705.49
2023-03-10T04:25:44.566Z,98700.02
2023-03-10T04:28:14.294Z,98697.69
2023-03-10T04:30:46.453Z,98709.50
2023-03-10T04:33:17.638Z,98704.17
2023-03-10T04:35:48.903Z,98703.41
2023-03-10T04:38:19.555Z,98711.36
2023-03-10T04:40:54.689Z,98704.30
2023-03-10T04:43:25.107Z,98706.27
2023-03-10T04:45:55.767Z,98697.94
2023-03-10T04:48:26.012Z,98693.94
2023-03-10T04:50:59.537Z,98691.78
2023-03-10T04:53:32.459Z,98691.28
2023-03-10T04:56:04.830Z,98698.67
2023-03-10T04:58:35.450Z,98692.27
2023-03-10T05:01:14.310Z,98688.22
2023-03-10T05:03:46.013Z,98685.08
2023-03-10T05:06:18.426Z,98686.93
2023-03-10T05:08:50.011Z,98685.16
2023-03-10T05:11:21.105Z,98682.73
2023-03-10T05:13:51.366Z,98677.75
2023-03-10T05:16:23.679Z,98679.81
2023-03-10T05:18:54.696Z,98682.88
2023-03-10T05:21:26.301Z,98680.67
2023-03-10T05:23:57.065Z,98678.19
2023-03-10T05:26:27.231Z,98680.88
2023-03-10T05:28:58.519Z,98689.84
2023-03-10T05:31:33.045Z,98678.84
2023-03-10T05:34:06.401Z,98680.34
2023-03-10T05:36:36.270Z,98686.96
2023-03-10T05:39:07.674Z,98690.72
2023-03-10T05:41:39.235Z,98689.34
2023-03-10T05:44:11.618Z,98693.46
2023-03-10T05:46:41.766Z,98714.88
2023-03-10T05:49:11.631Z,98692.49
2023-03-10T05:51:41.529Z,98690.58
2023-03-10T05:54:11.837Z,98701.30
2023-03-10T05:56:41.852Z,98703.73
2023-03-10T05:59:11.654Z,98713.39
2023-03-10T06:01:41.484Z,98723.31
2023-03-10T06:04:11.961Z,98716.02
2023-03-10T06:06:41.838Z,98714.30
2023-03-10T06:09:11.620Z,98716.23
2023-03-10T06:11:41.406Z,98704.59
2023-03-10T06:14:11.468Z,98699.09
2023-03-10T06:16:41.386Z,98696.59
2023-03-10T06:19:12.043Z,98691.44
2023-03-10T06:21:41.898Z,98699.54
2023-03-10T06:24:12.401Z,98706.88
2023-03-10T06:26:42.581Z,98704.08
2023-03-10T06:29:12.234Z,98702.16
2023-03-10T06:31:42.234Z,98700.48
2023-03-10T06:34:11.836Z,98704.22
2023-03-10T06:36:41.815Z,98704.04
2023-03-10T06:39:11.817Z,98703.40
2023-03-10T06:41:41.686Z,98707.04
2023-03-10T06:44:14.588Z,98708.69
2023-03-10T06:46:44.400Z,98707.82
2023-03-10T06:49:14.244Z,98711.39
2023-03-10T06:51:44.012Z,98721.06
2023-03-10T06:54:13.915Z,98715.89
2023-03-10T06:56:43.779Z,98715.57
2023-03-10T06:59:13.328Z,98717.05
2023-03-10T07:01:43.482Z,98717.34
2023-03-10T07:04:14.271Z,98721.70
2023-03-10T07:06:44.251Z,98726.05
2023-03-10T07:09:14.130Z,98731.12
2023-03-10T07:11:43.829Z,98727.10
2023-03-10T07:14:13.635Z,98731.95
2023-03-10T07:16:43.559Z,98732.09
2023-03-10T07:19:13.827Z,98731.66
2023-03-10T07:21:43.945Z,98739.81
2023-03-10T07:24:13.829Z,98743.41
2023-03-10T07:26:44.141Z,98741.11
2023-03-10T07:29:13.915Z,98741.48
2023-03-10T07:31:45.612Z,98742.61
2023-03-10T07:34:15.247Z,98742.45
2023-03-10T07:36:45.009Z,98744.65
2023-03-10T07:39:14.904Z,98739.69
2023-03-10T07:41:44.651Z,98751.16
2023-03-10T07:44:15.311Z,98746.72
2023-03-10T07:46:45.150Z,98755.94
2023-03-10T07:49:14.931Z,98749.86
2023-03-10T07:51:45.036Z,98747.44
2023-03-10T07:54:14.701Z,98753.80
2023-03-10T07:56:44.290Z,98749.76
2023-03-10T07:59:14.043Z,98752.13
2023-03-10T08:01:44.204Z,98752.72
2023-03-10T08:04:14.419Z,98759.10
2023-03-10T08:06:44.260Z,98759.63
2023-03-10T08:09:14.002Z,98768.18
2023-03-10T08:11:43.794Z,98765.14
2023-03-10T08:14:13.718Z,98765.30
2023-03-10T08:16:43.196Z,98767.39
2023-03-10T08:19:12.977Z,98765.66
2023-03-10T08:21:43.692Z,98763.02
2023-03-10T08:24:13.302Z,98760.72
2023-03-10T08:26:43.111Z,98757.39
2023-03-10T08:29:13.013Z,98768.39
2023-03-10T08:31:43.528Z,98770.67
2023-03-10T08:34:13.387Z,98765.95
2023-03-10T08:36:43.932Z,98774.11
2023-03-10T08:39:14.447Z,98774.36
2023-03-10T08:41:48.767Z,98772.36
2023-03-10T08:44:19.679Z,98758.97
2023-03-10T08:46:50.189Z,98765.42
2023-03-10T08:49:21.956Z,98764.34
2023-03-10T08:51:51.792Z,98766.48
2023-03-10T08:54:22.833Z,98770.73
2023-03-10T08:56:53.240Z,98764.34
2023-03-10T08:59:23.104Z,98764.45
2023-03-10T09:01:53.451Z,98763.33
2023-03-10T09:04:23.152Z,98765.11
2023-03-10T09:06:53.078Z,98761.16
2023-03-10T09:09:22.929Z,98767.11
2023-03-10T09:11:52.830Z,98763.38
2023-03-10T09:14:22.667Z,98765.92
2023-03-10T09:16:52.596Z,98768.91
2023-03-10T09:19:22.939Z,98772.00
2023-03-10T09:21:52.822Z,98756.34
2023-03-10T09:24:22.725Z,98756.34
2023-03-10T09:26:52.999Z,98766.97
2023-03-10T09:29:40.324Z,98763.11
2023-03-10T09:31:54.762Z,98759.34
2023-03-10T09:34:25.969Z,98759.34
2023-03-10T09:36:56.172Z,98758.81
2023-03-10T09:39:25.944Z,98758.52
2023-03-10T09:42:25.526Z,98763.70
2023-03-10T09:45:25.654Z,98763.53
2023-03-10T09:48:18.816Z,98761.35
2023-03-10T09:50:56.000Z,98763.67
2023-03-10T09:53:49.466Z,98762.30
2023-03-10T09:56:21.883Z,98766.75
2023-03-10T09:58:57.291Z,98766.10
2023-03-10T10:01:29.826Z,98770.44
2023-03-10T10:04:02.915Z,98769.46
2023-03-10T10:06:35.770Z,98767.11
2023-03-10T10:09:09.861Z,98768.29
2023-03-10T10:11:40.593Z,98769.44
2023-03-10T10:14:30.313Z,98768.38
2023-03-10T10:17:07.476Z,98772.08
2023-03-10T10:19:40.425Z,98775.83
2023-03-10T10:22:26.709Z,98781.89
2023-03-10T10:25:17.369Z,98781.27
2023-03-10T10:27:49.085Z,98780.77
2023-03-10T10:30:40.366Z,98783.92
2023-03-10T10:33:13.102Z,98780.28
2023-03-10T10:35:49.329Z,98783.53
2023-03-10T10:38:19.614Z,98789.00
2023-03-10T10:40:54.686Z,98789.20
2023-03-10T10:43:24.454Z,98780.42
2023-03-10T10:45:56.808Z,98780.87
2023-03-10T10:48:32.619Z,98777.20
2023-03-10T10:51:02.456Z,98780.95
2023-03-10T10:53:34.454Z,98786.31
2023-03-10T10:56:07.573Z,98786.31
2023-03-10T10:58:40.570Z,98786.12
2023-03-10T11:01:13.317Z,98791.16
2023-03-10T11:03:46.116Z,98798.95
2023-03-10T11:06:31.737Z,98796.78
2023-03-10T11:09:12.446Z,98797.84
2023-03-10T11:12:18.430Z,98788.23
2023-03-10T11:15:21.268Z,98788.78
2023-03-10T11:17:59.410Z,98796.03
2023-03-10T11:20:46.960Z,98787.61
2023-03-10T11:23:31.828Z,98787.61
2023-03-10T11:26:04.701Z,98787.96
2023-03-10T11:28:40.766Z,98777.91
2023-03-10T11:31:26.301Z,98780.89
2023-03-10T11:34:15.209Z,98775.07
2023-03-10T11:36:56.585Z,98779.29
2023-03-10T11:39:37.081Z,98776.44
2023-03-10T11:42:19.735Z,98775.39
2023-03-10T11:45:13.198Z,98778.89
2023-03-10T11:48:08.376Z,98783.07
2023-03-10T11:50:43.975Z,98779.30
2023-03-10T11:53:25.342Z,98762.69
2023-03-10T11:55:56.751Z,98762.62
2023-03-10T11:58:41.263Z,98759.90
2023-03-10T12:01:12.933Z,98754.87
2023-03-10T12:03:57.487Z,98747.44
2023-03-10T12:06:35.809Z,98743.05
2023-03-10T12:09:07.654Z,98747.71
2023-03-10T12:11:37.714Z,98741.70
2023-03-10T12:14:12.892Z,98741.70
2023-03-10T12:16:43.386Z,98738.61
2023-03-10T12:19:13.232Z,98747.83
2023-03-10T12:21:43.101Z,98734.73
2023-03-10T12:24:44.409Z,98736.05
2023-03-10T12:27:14.351Z,98736.05
2023-03-10T12:29:45.309Z,98742.45
2023-03-10T12:32:43.518Z,98741.95
2023-03-10T12:35:37.286Z,98744.13
2023-03-10T12:38:32.171Z,98749.08
2023-03-10T12:41:02.280Z,98748.66
2023-03-10T12:43:51.613Z,98741.09
2023-03-10T12:46:24.668Z,98742.03
2023-03-10T12:49:24.341Z,98745.48
2023-03-10T12:52:11.773Z,98730.97
2023-03-10T12:54:59.388Z,98724.42
2023-03-10T12:57:52.874Z,98723.58
2023-03-10T13:00:49.027Z,98721.96
2023-03-10T13:03:27.935Z,98715.91
2023-03-10T13:06:09.398Z,98717.41
2023-03-10T13:08:47.708Z,98708.25
2023-03-10T13:11:26.129Z,98711.23
2023-03-10T13:14:01.863Z,98718.10
2023-03-10T13:16:32.786Z,98731.30
2023-03-10T13:19:03.875Z,98739.92
2023-03-10T13:21:36.510Z,98734.05
2023-03-10T13:24:30.633Z,98736.25
2023-03-10T13:27:15.213Z,98749.80
2023-03-10T13:30:21.094Z,98742.44
2023-03-10T13:32:59.896Z,98742.44
2023-03-10T13:35:38.104Z,98740.12
2023-03-10T13:38:17.309Z,98747.25
2023-03-10T13:40:49.799Z,98753.59
2023-03-10T13:43:28.657Z,98749.11
2023-03-10T13:46:00.572Z,98755.20
2023-03-10T13:48:32.728Z,98778.16
2023-03-10T13:51:10.757Z,98786.23
2023-03-10T13:53:40.728Z,98786.23
2023-03-10T13:59:07.432Z,98800.41
2023-03-10T14:01:40.381Z,98808.75
2023-03-10T14:04:11.799Z,98828.29
2023-03-10T14:06:41.652Z,98828.29
2023-03-10T14:09:22.727Z,98852.88
2023-03-10T14:11:53.027Z,98885.44
2023-03-10T14:14:34.556Z,98885.44
2023-03-10T14:17:06.903Z,98895.19
2023-03-10T14:19:42.689Z,98901.02
2023-03-10T14:22:31.671Z,98900.32
2023-03-10T14:25:03.995Z,98917.32
2023-03-10T14:27:36.196Z,98930.52
2023-03-10T14:30:25.415Z,98936.52
2023-03-10T14:32:56.543Z,98957.49
2023-03-10T14:35:28.220Z,98979.41
2023-03-10T14:37:58.943Z,98999.73
2023-03-10T14:40:28.946Z,99026.06
2023-03-10T14:43:02.231Z,99050.45
2023-03-10T14:45:38.298Z,99085.23
2023-03-10T14:48:25.445Z,99085.23
2023-03-10T14:50:57.015Z,99103.38
2023-03-10T14:53:28.143Z,99120.91
2023-03-10T14:56:00.946Z,99129.61
2023-03-10T14:58:33.984Z,99139.70
2023-03-10T15:01:04.373Z,99147.73
2023-03-10T15:03:34.394Z,99164.30
2023-03-10T15:06:06.963Z,99169.16
2023-03-10T15:08:36.741Z,99170.51
2023-03-10T15:11:06.940Z,99173.00
2023-03-10T15:13:38.693Z,99197.45
2023-03-10T15:16:12.666Z,99207.53
2023-03-10T15:18:42.498Z,99207.91
2023-03-10T15:21:13.922Z,99202.80
2023-03-10T15:23:43.684Z,99231.84
2023-03-10T15:26:14.195Z,99243.64
2023-03-10T15:28:44.058Z,99247.84
2023-03-10T15:31:14.246Z,99254.34
2023-03-10T15:33:44.061Z,99288.90
2023-03-10T15:36:13.917Z,99300.72
2023-03-10T15:38:43.704Z,99305.53
2023-03-10T15:41:13.547Z,99341.72
2023-03-10T15:43:43.388Z,99370.88
2023-03-10T15:46:13.424Z,99381.13
2023-03-10T15:48:43.659Z,99385.99
2023-03-10T15:51:15.436Z,99395.25
2023-03-10T15:53:46.079Z,99408.74
2023-03-10T15:56:15.831Z,99443.38
2023-03-10T15:58:45.630Z,99453.47
2023-03-10T16:01:19.806Z,99475.13
2023-03-10T16:03:50.026Z,99479.27
2023-03-10T16:06:19.517Z,99507.64
2023-03-10T16:08:49.298Z,99535.36
2023-03-10T16:11:21.618Z,99541.69
2023-03-10T16:13:51.383Z,99557.05
2023-03-10T16:16:24.085Z,99590.58
2023-03-10T16:18:54.239Z,99598.46
2023-03-10T16:21:24.067Z,99601.14
2023-03-10T16:23:54.019Z,99639.12
2023-03-10T16:26:25.331Z,99643.68
2023-03-10T16:28:56.009Z,99669.16
2023-03-10T16:31:27.516Z,99678.06
2023-03-10T16:33:57.623Z,99691.64
2023-03-10T16:36:29.492Z,99703.36
2023-03-10T16:38:59.294Z,99715.63
2023-03-10T16:41:30.008Z,99719.16
2023-03-10T16:44:00.052Z,99735.77
2023-03-10T16:46:31.381Z,99742.11
2023-03-10T16:49:01.968Z,99754.03
2023-03-10T16:51:39.912Z,99752.18
2023-03-10T16:54:15.188Z,99764.09
2023-03-10T16:56:47.877Z,99785.91
2023-03-10T16:59:19.870Z,99785.91
2023-03-10T17:01:50.472Z,99809.24
2023-03-10T17:04:21.167Z,99824.34
2023-03-10T17:06:51.016Z,99834.06
2023-03-10T17:09:20.820Z,99834.06
2023-03-10T17:11:55.348Z,99848.84
2023-03-10T17:14:24.898Z,99857.58
2023-03-10T17:16:56.163Z,99859.42
2023-03-10T17:19:27.558Z,99868.80
2023-03-10T17:21:58.596Z,99873.67
2023-03-10T17:24:28.873Z,99893.98
2023-03-10T17:26:58.347Z,99886.91
2023-03-10T17:29:28.129Z,99907.25
2023-03-10T17:31:58.044Z,99927.39
2023-03-10T17:34:29.315Z,99935.64
2023-03-10T17:36:59.061Z,99954.27
2023-03-10T17:39:28.989Z,99955.44
2023-03-10T17:41:58.864Z,99967.84
2023-03-10T17:44:28.481Z,99975.27
2023-03-10T17:46:58.167Z,99990.54
2023-03-10T17:49:28.251Z,100003.32
2023-03-10T17:51:58.204Z,100005.66
2023-03-10T17:54:27.985Z,100010.37
2023-03-10T17:56:57.781Z,100014.90
2023-03-10T17:59:28.709Z,100037.26
2023-03-10T18:01:58.619Z,100053.05
2023-03-10T18:04:30.128Z,100059.80
2023-03-10T18:07:00.148Z,100067.66
2023-03-10T18:09:30.315Z,100080.10
2023-03-10T18:12:00.371Z,100091.34
2023-03-10T18:14:30.258Z,100102.06
2023-03-10T18:17:01.705Z,100109.84
2023-03-10T18:19:31.460Z,100115.58
2023-03-10T18:22:01.269Z,100128.50
2023-03-10T18:24:31.060Z,100137.09
2023-03-10T18:27:01.705Z,100156.23
2023-03-10T18:29:31.553Z,100151.36
2023-03-10T18:32:00.987Z,100155.17
2023-03-10T18:34:31.075Z,100146.47
2023-03-10T18:37:00.960Z,100159.23
2023-03-10T18:39:30.705Z,100167.13
2023-03-10T18:42:00.504Z,100182.97
2023-03-10T18:44:30.591Z,100188.12
2023-03-10T18:47:00.353Z,100189.06
2023-03-10T18:49:30.342Z,100186.80
2023-03-10T18:52:00.270Z,100189.90
2023-03-10T18:54:30.429Z,100189.67
2023-03-10T18:57:01.636Z,100200.25
2023-03-10T18:59:31.505Z,100202.27
2023-03-10T19:02:01.205Z,100207.34
2023-03-10T19:04:31.101Z,100222.70
2023-03-10T19:07:00.841Z,100233.14
2023-03-10T19:09:30.609Z,100233.62
2023-03-10T19:12:00.660Z,100239.23
2023-03-10T19:14:30.461Z,100245.98
2023-03-10T19:17:00.222Z,100247.97
2023-03-10T19:19:30.126Z,100252.64
2023-03-10T19:21:59.901Z,100264.48
2023-03-10T19:24:29.789Z,100274.89
2023-03-10T19:26:59.656Z,100282.77
2023-03-10T19:29:29.575Z,100293.03
2023-03-10T19:31:59.495Z,100306.91
2023-03-10T19:34:29.378Z,100304.55
2023-03-10T19:36:59.172Z,100320.78
2023-03-10T19:39:29.015Z,100319.61
2023-03-10T19:41:58.961Z,100333.84
2023-03-10T19:44:28.759Z,100326.51
2023-03-10T19:46:58.610Z,100337.38
2023-03-10T19:49:28.758Z,100347.34
2023-03-10T19:51:58.531Z,100356.64
2023-03-10T19:54:28.219Z,100361.94
2023-03-10T19:56:58.122Z,100358.44
2023-03-10T19:59:28.278Z,100374.16
2023-03-10T20:01:59.729Z,100359.19
2023-03-10T20:04:31.208Z,100359.19
2023-03-10T20:07:01.159Z,100366.88
2023-03-10T20:09:31.587Z,100383.27
2023-03-10T20:12:01.788Z,100385.30
2023-03-10T20:14:32.067Z,100384.52
2023-03-10T20:17:02.144Z,100390.55
2023-03-10T20:19:32.325Z,100394.88
2023-03-10T20:22:02.485Z,100406.73
2023-03-10T20:24:32.327Z,100409.22
2023-03-10T20:27:03.193Z,100424.30
2023-03-10T20:29:32.961Z,100419.52
2023-03-10T20:32:04.406Z,100410.94
2023-03-10T20:34:34.331Z,100418.55
2023-03-10T20:37:04.065Z,100429.12
2023-03-10T20:39:33.849Z,100431.78
2023-03-10T20:42:03.342Z,100426.27
2023-03-10T20:44:33.170Z,100436.95
2023-03-10T20:47:03.277Z,100441.34
2023-03-10T20:49:33.046Z,100448.91
2023-03-10T20:52:02.909Z,100452.74
2023-03-10T20:54:32.671Z,100457.66
2023-03-10T20:57:03.423Z,100465.93
2023-03-10T20:59:33.271Z,100467.30
2023-03-10T21:02:03.097Z,100473.73
2023-03-10T21:04:33.803Z,100481.85
2023-03-10T21:07:03.571Z,100484.41
2023-03-10T21:09:33.491Z,100492.78
2023-03-10T21:12:03.235Z,100505.75
2023-03-10T21:14:33.080Z,100508.69
2023-03-10T21:17:03.254Z,100504.75
2023-03-10T21:19:33.397Z,100506.64
2023-03-10T21:22:03.551Z,100520.02
2023-03-10T21:24:33.266Z,100517.00
2023-03-10T21:27:03.054Z,100527.80
2023-03-10T21:29:35.484Z,100531.29
2023-03-10T21:32:05.533Z,100522.79
2023-03-10T21:34:35.770Z,100530.45
2023-03-10T21:37:05.688Z,100543.26
2023-03-10T21:39:35.555Z,100550.25
2023-03-10T21:42:06.952Z,100553.88
2023-03-10T21:44:36.743Z,100561.24
2023-03-10T21:47:06.852Z,100574.59
2023-03-10T21:49:37.094Z,100571.25
2023-03-10T21:52:10.472Z,100583.84
2023-03-10T21:54:40.606Z,100586.03
2023-03-10T21:57:10.414Z,100596.72
2023-03-10T21:59:40.447Z,100609.23
2023-03-10T22:02:27.856Z,100612.24
2023-03-10T22:04:58.071Z,100614.62
2023-03-10T22:07:27.806Z,100625.97
2023-03-10T22:09:57.648Z,100621.50
2023-03-10T22:12:27.272Z,100621.31
2023-03-10T22:14:57.796Z,100623.34
2023-03-10T22:17:28.366Z,100633.63
2023-03-10T22:19:57.953Z,100635.29
2023-03-10T22:22:27.679Z,100639.08
2023-03-10T22:24:57.436Z,100648.05
2023-03-10T22:27:27.217Z,100653.78
2023-03-10T22:29:56.952Z,100650.82
2023-03-10T22:32:26.493Z,100652.93
2023-03-10T22:34:56.941Z,100653.22
2023-03-10T22:37:26.774Z,100650.61
2023-03-10T22:39:56.852Z,100650.75
2023-03-10T22:42:26.399Z,100662.54
2023-03-10T22:44:56.248Z,100666.48
2023-03-10T22:47:26.080Z,100676.22
2023-03-10T22:49:55.937Z,100676.22
2023-03-10T22:52:25.944Z,100679.16
2023-03-10T22:54:55.773Z,100680.27
2023-03-10T22:57:25.567Z,100683.72
2023-03-10T22:59:55.337Z,100681.42
2023-03-10T23:02:24.889Z,100691.37
2023-03-10T23:04:55.565Z,100694.13
2023-03-10T23:07:25.314Z,100690.83
2023-03-10T23:09:55.265Z,100699.02
2023-03-10T23:12:25.849Z,100700.23
2023-03-10T23:14:55.607Z,100703.77
2023-03-10T23:17:25.707Z,100702.72
2023-03-10T23:19:56.980Z,100706.65
2023-03-10T23:22:27.916Z,100711.64
2023-03-10T23:24:57.724Z,100710.20
2023-03-10T23:27:27.552Z,100706.58
2023-03-10T23:29:57.387Z,100713.41
2023-03-10T23:32:27.172Z,100717.68
2023-03-10T23:34:57.354Z,100723.16
2023-03-10T23:37:27.237Z,100723.16
2023-03-10T23:39:57.285Z,100727.98
2023-03-10T23:42:26.810Z,100731.20
2023-03-10T23:44:56.583Z,100738.05
2023-03-10T23:47:26.629Z,100732.66
2023-03-10T23:49:57.179Z,100732.66
2023-03-10T23:52:27.067Z,100750.53
2023-03-10T23:54:56.987Z,100753.08
2023-03-10T23:57:27.668Z,100742.52
2023-03-10T23:59:57.744Z,100753.13
